Time;durP1;ratioP1;P1;durP2;ratioP2;P2;SDS_P1;SDS_P2;PMS_P1;PMS_P2;Temp;Humidity;BMP_temperature;BMP_pressure;BME280_temperature;BME280_humidity;BME280_pressure;Samples;Min_cycle;Max_cycle;Signal;HPM_P1;HPM_P2
2022/08/25 00:00:00;;;;;;;2.35;2.15;;;26.30;99.90;;;;;;1047562;28;20024;-74
2022/08/25 00:00:31;;;;;;;2.28;2.08;;;26.40;99.90;;;;;;1047680;28;20021;-74
2022/08/25 00:01:07;;;;;;;2.10;1.70;;;26.40;99.90;;;;;;1048851;28;20125;-74
2022/08/25 00:01:41;;;;;;;2.58;1.95;;;26.30;99.90;;;;;;1051585;28;20032;-74
2022/08/25 00:02:12;;;;;;;2.05;1.85;;;26.30;99.90;;;;;;1051627;28;20020;-73
2022/08/25 00:02:42;;;;;;;1.80;1.67;;;26.30;99.90;;;;;;1052049;28;20051;-73
2022/08/25 00:03:14;;;;;;;2.37;2.07;;;26.30;99.90;;;;;;1050661;28;20299;-74
2022/08/25 00:03:45;;;;;;;2.45;2.05;;;26.30;99.90;;;;;;1047311;28;20024;-74
2022/08/25 00:04:17;;;;;;;2.03;1.83;;;26.30;99.90;;;;;;1047318;28;20055;-74
2022/08/25 00:04:48;;;;;;;3.67;1.95;;;26.30;99.90;;;;;;1048177;28;20016;-76
2022/08/25 00:05:18;;;;;;;2.17;1.83;;;26.30;99.90;;;;;;1052097;28;20023;-74
2022/08/25 00:05:49;;;;;;;2.20;1.87;;;26.30;99.90;;;;;;1056281;28;20700;-73
2022/08/25 00:06:20;;;;;;;1.97;1.77;;;26.30;99.90;;;;;;1048267;28;20116;-74
2022/08/25 00:06:52;;;;;;;3.20;1.90;;;26.30;99.90;;;;;;1046565;28;20021;-76
2022/08/25 00:07:22;;;;;;;3.20;2.22;;;26.30;99.90;;;;;;1047851;28;20031;-75
2022/08/25 00:07:53;;;;;;;2.37;1.97;;;26.30;99.90;;;;;;1047879;28;20032;-75
2022/08/25 00:08:23;;;;;;;2.83;2.10;;;26.30;99.90;;;;;;1047277;28;20031;-75
2022/08/25 00:08:58;;;;;;;2.20;1.90;;;26.30;99.90;;;;;;1047360;28;20557;-74
2022/08/25 00:09:29;;;;;;;2.00;1.80;;;26.30;99.90;;;;;;1047614;28;20578;-75
2022/08/25 00:10:00;;;;;;;2.88;2.00;;;26.30;99.90;;;;;;1048225;28;20013;-75
2022/08/25 00:10:33;;;;;;;2.00;1.90;;;26.30;99.90;;;;;;1052060;28;20024;-74
2022/08/25 00:11:06;;;;;;;2.20;2.00;;;26.30;99.90;;;;;;1047769;28;20543;-74
2022/08/25 00:11:41;;;;;;;2.10;1.90;;;26.30;99.90;;;;;;1051609;28;20020;-75
2022/08/25 00:12:12;;;;;;;2.85;2.15;;;26.30;99.90;;;;;;1047414;28;20024;-75
2022/08/25 00:12:43;;;;;;;2.23;2.03;;;26.30;99.90;;;;;;1048947;28;20021;-75
2022/08/25 00:13:13;;;;;;;2.50;1.97;;;26.30;99.90;;;;;;1051380;28;20050;-74
2022/08/25 00:13:48;;;;;;;2.00;1.90;;;26.30;99.90;;;;;;1051919;28;20417;-74
2022/08/25 00:14:23;;;;;;;3.08;2.05;;;26.30;99.90;;;;;;1051618;28;20008;-75
2022/08/25 00:14:53;;;;;;;1.80;1.70;;;26.30;99.90;;;;;;1052969;28;20066;-74
2022/08/25 00:15:24;;;;;;;1.97;1.80;;;26.20;99.90;;;;;;1056303;28;20106;-74
2022/08/25 00:15:56;;;;;;;1.70;1.60;;;26.20;99.90;;;;;;1051572;28;20012;-74
2022/08/25 00:16:30;;;;;;;2.08;1.92;;;26.20;99.90;;;;;;1051855;28;20094;-74
2022/08/25 00:17:01;;;;;;;1.58;1.48;;;26.20;99.90;;;;;;1043922;28;20583;-74
2022/08/25 00:17:31;;;;;;;4.25;2.50;;;26.20;99.90;;;;;;1044259;28;20498;-74
2022/08/25 00:18:02;;;;;;;2.43;2.03;;;26.20;99.90;;;;;;1047655;28;20418;-74
2022/08/25 00:18:33;;;;;;;2.30;2.10;;;26.20;99.90;;;;;;1049097;28;20112;-74
2022/08/25 00:19:08;;;;;;;2.37;2.17;;;26.20;99.90;;;;;;1051559;28;20023;-74
2022/08/25 00:19:38;;;;;;;2.00;1.80;;;26.20;99.90;;;;;;1052444;28;20028;-73
2022/08/25 00:20:09;;;;;;;2.77;2.20;;;26.20;99.90;;;;;;1048342;28;20350;-74
2022/08/25 00:20:40;;;;;;;2.45;2.10;;;26.20;99.90;;;;;;1047693;28;20020;-74
2022/08/25 00:21:12;;;;;;;2.53;2.10;;;26.20;99.90;;;;;;1049172;28;20021;-73
2022/08/25 00:21:43;;;;;;;2.08;1.88;;;26.20;99.90;;;;;;1047900;28;20364;-73
2022/08/25 00:22:14;;;;;;;2.33;2.13;;;26.20;99.90;;;;;;1051556;28;20104;-74
2022/08/25 00:22:45;;;;;;;2.20;2.00;;;26.20;99.90;;;;;;1050011;28;20028;-74
2022/08/25 00:23:16;;;;;;;3.30;2.00;;;26.20;99.90;;;;;;1047717;28;20009;-74
2022/08/25 00:23:48;;;;;;;2.30;1.83;;;26.20;99.90;;;;;;1047426;28;20013;-76
2022/08/25 00:24:21;;;;;;;2.40;2.20;;;26.20;99.90;;;;;;1048012;28;20077;-74
2022/08/25 00:24:51;;;;;;;2.30;2.10;;;26.10;99.90;;;;;;1050781;28;20103;-75
2022/08/25 00:25:22;;;;;;;2.30;2.00;;;26.20;99.90;;;;;;1052363;28;20012;-74
2022/08/25 00:25:54;;;;;;;2.47;2.28;;;26.10;99.90;;;;;;1056244;28;20019;-74
2022/08/25 00:26:25;;;;;;;2.22;2.03;;;26.10;99.90;;;;;;1056094;28;20007;-74
2022/08/25 00:26:57;;;;;;;2.47;2.10;;;26.10;99.90;;;;;;1056212;28;20156;-74
2022/08/25 00:27:28;;;;;;;2.38;2.10;;;26.10;99.90;;;;;;1051527;28;20016;-74
2022/08/25 00:27:59;;;;;;;2.07;1.93;;;26.10;99.90;;;;;;1051920;28;20066;-75
2022/08/25 00:28:29;;;;;;;2.38;2.10;;;26.10;99.90;;;;;;1051617;28;20012;-74
2022/08/25 00:29:00;;;;;;;2.27;2.03;;;26.10;99.90;;;;;;1051074;28;20020;-75
2022/08/25 00:29:32;;;;;;;2.60;2.17;;;26.10;99.90;;;;;;1052058;28;20741;-75
2022/08/25 00:30:04;;;;;;;2.10;1.90;;;26.10;99.90;;;;;;1051859;28;20016;-74
2022/08/25 00:30:35;;;;;;;2.92;2.38;;;26.10;99.90;;;;;;1047609;28;20013;-75
2022/08/25 00:31:11;;;;;;;2.38;2.08;;;26.10;99.90;;;;;;1050790;28;20028;-74
2022/08/25 00:31:42;;;;;;;3.05;2.13;;;26.10;99.90;;;;;;1051731;28;20026;-74
2022/08/25 00:32:12;;;;;;;2.75;1.88;;;26.10;99.90;;;;;;1048061;28;20017;-75
2022/08/25 00:32:44;;;;;;;2.73;2.27;;;26.10;99.90;;;;;;1047385;28;20013;-74
2022/08/25 00:33:16;;;;;;;2.05;1.85;;;26.10;99.90;;;;;;1043153;28;20024;-74
2022/08/25 00:33:47;;;;;;;2.15;1.95;;;26.10;99.90;;;;;;1043814;28;20369;-75
2022/08/25 00:34:23;;;;;;;2.55;2.03;;;26.10;99.90;;;;;;1047859;28;20116;-74
2022/08/25 00:34:53;;;;;;;2.03;1.90;;;26.10;99.90;;;;;;1052821;28;20016;-74
2022/08/25 00:35:25;;;;;;;2.23;1.80;;;26.10;99.90;;;;;;1060042;27;20134;-75
2022/08/25 00:35:56;;;;;;;2.35;2.15;;;26.10;99.90;;;;;;1055838;28;20730;-74
2022/08/25 00:36:27;;;;;;;2.13;1.92;;;26.10;99.90;;;;;;1055911;28;20019;-73
2022/08/25 00:36:58;;;;;;;2.10;1.90;;;26.10;99.90;;;;;;1050853;28;20016;-73
2022/08/25 00:37:29;;;;;;;2.70;2.37;;;26.10;99.90;;;;;;1047724;28;20021;-74
2022/08/25 00:38:00;;;;;;;3.47;2.27;;;26.10;99.90;;;;;;1046765;28;20047;-74
2022/08/25 00:38:30;;;;;;;2.57;1.83;;;26.10;99.90;;;;;;1047660;28;20035;-74
2022/08/25 00:39:01;;;;;;;2.20;1.93;;;26.10;99.90;;;;;;1047134;28;20039;-75
2022/08/25 00:39:32;;;;;;;2.80;2.33;;;26.10;99.90;;;;;;1050457;28;20063;-73
2022/08/25 00:40:07;;;;;;;2.00;1.90;;;26.10;99.90;;;;;;1055482;28;20485;-74
2022/08/25 00:40:38;;;;;;;2.15;1.95;;;26.10;99.90;;;;;;1055885;28;20070;-73
2022/08/25 00:41:12;;;;;;;2.85;2.55;;;26.10;99.90;;;;;;1056078;28;20012;-73
2022/08/25 00:41:43;;;;;;;2.20;1.90;;;26.10;99.90;;;;;;1056253;28;20493;-74
2022/08/25 00:42:14;;;;;;;2.27;2.07;;;26.00;99.90;;;;;;1055957;28;20502;-74
2022/08/25 00:42:45;;;;;;;2.10;1.90;;;26.00;99.90;;;;;;1056161;28;20024;-74
2022/08/25 00:43:17;;;;;;;2.28;2.08;;;26.00;99.90;;;;;;1055935;28;20033;-75
2022/08/25 00:43:56;;;;;;;4.35;2.10;;;26.00;99.90;;;;;;1056545;28;20042;-74
2022/08/25 00:44:30;;;;;;;2.38;2.15;;;26.00;99.90;;;;;;1055748;28;20066;-74
2022/08/25 00:45:01;;;;;;;2.45;2.10;;;26.00;99.90;;;;;;1056250;28;20011;-74
2022/08/25 00:45:33;;;;;;;2.27;2.07;;;26.00;99.90;;;;;;1056114;28;20098;-74
2022/08/25 00:46:04;;;;;;;2.35;1.90;;;26.00;99.90;;;;;;1051459;28;20015;-74
2022/08/25 00:46:42;;;;;;;2.83;2.33;;;26.00;99.90;;;;;;1051584;28;20083;-74
2022/08/25 00:47:13;;;;;;;3.45;2.20;;;26.00;99.90;;;;;;1051447;28;20012;-74
2022/08/25 00:47:43;;;;;;;2.63;2.00;;;26.00;99.90;;;;;;1052925;28;20044;-75
2022/08/25 00:48:14;;;;;;;2.07;1.97;;;26.00;99.90;;;;;;1056140;28;20016;-75
2022/08/25 00:48:49;;;;;;;2.33;2.13;;;26.00;99.90;;;;;;1056138;28;20007;-73
2022/08/25 00:49:34;;;;;;;1.92;1.83;;;26.00;99.90;;;;;;1050597;28;20016;-75
2022/08/25 00:50:07;;;;;;;2.58;2.38;;;26.00;99.90;;;;;;1047238;28;20021;-74
2022/08/25 00:50:37;;;;;;;2.40;2.13;;;25.90;99.90;;;;;;1042994;28;20021;-75
2022/08/25 00:51:13;;;;;;;2.77;2.23;;;25.90;99.90;;;;;;1045645;28;20017;-75
2022/08/25 00:51:52;;;;;;;2.45;2.17;;;25.90;99.90;;;;;;1047453;28;20463;-75
2022/08/25 00:52:27;;;;;;;1.95;1.85;;;25.90;99.90;;;;;;1047538;28;20046;-74
2022/08/25 00:53:01;;;;;;;4.22;2.17;;;25.90;99.90;;;;;;1048818;28;20094;-74
2022/08/25 00:53:31;;;;;;;2.20;2.00;;;25.90;99.90;;;;;;1054283;28;21069;-75
2022/08/25 00:54:04;;;;;;;2.50;2.23;;;25.90;99.90;;;;;;1051384;28;20527;-74
2022/08/25 00:55:00;;;;;;;2.72;2.50;;;25.90;99.90;;;;;;1050672;28;20036;-74
2022/08/25 00:55:38;;;;;;;3.13;2.25;;;25.90;99.90;;;;;;1042877;28;20179;-74
2022/08/25 00:56:10;;;;;;;2.75;2.10;;;25.90;99.90;;;;;;1047121;28;20169;-75
2022/08/25 00:56:42;;;;;;;3.03;2.20;;;25.90;99.90;;;;;;1051064;28;20437;-75
2022/08/25 00:57:16;;;;;;;2.38;2.17;;;25.90;99.90;;;;;;1051200;28;20041;-75
2022/08/25 00:58:05;;;;;;;3.25;2.30;;;25.90;99.90;;;;;;1052702;28;20027;-74
2022/08/25 00:58:37;;;;;;;2.50;2.30;;;25.90;99.90;;;;;;1056099;28;20086;-75
2022/08/25 00:59:08;;;;;;;2.30;2.10;;;25.90;99.90;;;;;;1056131;28;20095;-73
2022/08/25 00:59:40;;;;;;;2.38;2.17;;;25.90;99.90;;;;;;1051540;28;20448;-74
2022/08/25 01:00:18;;;;;;;3.92;2.20;;;25.90;99.90;;;;;;1051291;28;20008;-74
2022/08/25 01:00:52;;;;;;;3.42;2.50;;;25.90;99.90;;;;;;1051882;28;20410;-74
2022/08/25 01:01:23;;;;;;;2.03;1.83;;;25.90;99.90;;;;;;1053288;28;20023;-74
2022/08/25 01:01:55;;;;;;;2.30;2.10;;;25.90;99.90;;;;;;1056124;28;20027;-74
2022/08/25 01:02:26;;;;;;;2.42;2.20;;;25.80;99.90;;;;;;1049037;28;20140;-74
2022/08/25 01:02:57;;;;;;;2.67;2.47;;;25.80;99.90;;;;;;1047374;28;20019;-74
2022/08/25 01:03:29;;;;;;;6.10;2.45;;;25.80;99.90;;;;;;1047130;28;20008;-74
2022/08/25 01:04:00;;;;;;;2.30;2.10;;;25.80;99.90;;;;;;1043566;28;20440;-74
2022/08/25 01:04:31;;;;;;;2.78;2.58;;;25.80;99.90;;;;;;1049894;28;20012;-74
2022/08/25 01:05:02;;;;;;;2.53;2.17;;;25.80;99.90;;;;;;1047247;28;20013;-74
2022/08/25 01:05:33;;;;;;;2.35;2.15;;;25.80;99.90;;;;;;1047471;28;20035;-74
2022/08/25 01:06:04;;;;;;;2.40;2.20;;;25.80;99.90;;;;;;1051678;28;20046;-75
2022/08/25 01:06:37;;;;;;;5.00;2.70;;;25.80;99.90;;;;;;1051830;28;20020;-73
2022/08/25 01:07:08;;;;;;;2.22;2.03;;;25.80;99.90;;;;;;1051507;28;20053;-73
2022/08/25 01:07:41;;;;;;;2.60;2.20;;;25.80;99.90;;;;;;1051498;28;20089;-73
2022/08/25 01:08:12;;;;;;;4.20;2.55;;;25.80;99.90;;;;;;1051306;28;20046;-75
2022/08/25 01:08:43;;;;;;;2.30;2.10;;;25.80;99.90;;;;;;1047829;28;20040;-75
2022/08/25 01:09:14;;;;;;;2.90;2.47;;;25.80;99.90;;;;;;1051364;28;20456;-75
2022/08/25 01:09:47;;;;;;;2.53;2.08;;;25.80;99.90;;;;;;1047136;28;20048;-75
2022/08/25 01:10:20;;;;;;;2.15;1.95;;;25.80;99.90;;;;;;1050837;28;20731;-75
2022/08/25 01:10:50;;;;;;;3.90;2.15;;;25.80;99.90;;;;;;1051366;28;20071;-74
2022/08/25 01:11:21;;;;;;;2.20;2.00;;;25.80;99.90;;;;;;1051443;28;20024;-74
2022/08/25 01:11:52;;;;;;;5.00;2.37;;;25.80;99.90;;;;;;1049568;28;20029;-74
2022/08/25 01:12:22;;;;;;;2.87;2.57;;;25.80;99.90;;;;;;1051649;28;20415;-74
2022/08/25 01:12:58;;;;;;;2.90;2.20;;;25.80;99.90;;;;;;1051172;28;20026;-74
2022/08/25 01:13:43;;;;;;;2.75;2.10;;;25.80;99.90;;;;;;1052242;28;20134;-73
2022/08/25 01:14:17;;;;;;;2.55;2.25;;;25.80;99.90;;;;;;1055904;28;20379;-73
2022/08/25 01:14:48;;;;;;;2.08;1.98;;;25.80;99.90;;;;;;1051324;28;20027;-75
2022/08/25 01:15:20;;;;;;;2.55;2.28;;;25.80;99.90;;;;;;1051439;28;20373;-75
2022/08/25 01:15:54;;;;;;;2.40;2.20;;;25.80;99.90;;;;;;1047212;28;20476;-74
2022/08/25 01:16:26;;;;;;;2.33;2.10;;;25.80;99.90;;;;;;1048085;28;20458;-75
2022/08/25 01:16:58;;;;;;;2.28;2.08;;;25.80;99.90;;;;;;1051189;28;20012;-75
2022/08/25 01:17:54;;;;;;;1.98;1.88;;;25.80;99.90;;;;;;1051446;28;20777;-76
2022/08/25 01:18:26;;;;;;;2.75;2.40;;;25.80;99.90;;;;;;1051372;28;20675;-75
2022/08/25 01:18:58;;;;;;;2.30;2.10;;;25.80;99.90;;;;;;1047113;28;20133;-75
2022/08/25 01:19:32;;;;;;;4.00;2.60;;;25.80;99.90;;;;;;1051575;28;20057;-76
2022/08/25 01:20:03;;;;;;;2.72;2.40;;;25.80;99.90;;;;;;1051372;28;20020;-75
2022/08/25 01:20:34;;;;;;;3.45;2.45;;;25.80;99.90;;;;;;1052143;28;20027;-76
2022/08/25 01:21:04;;;;;;;3.05;2.30;;;25.80;99.90;;;;;;1055753;28;20165;-75
2022/08/25 01:21:42;;;;;;;1.90;1.80;;;25.80;99.90;;;;;;1056065;28;20031;-76
2022/08/25 01:22:13;;;;;;;2.92;2.70;;;25.80;99.90;;;;;;1051266;28;20028;-75
2022/08/25 01:22:44;;;;;;;2.70;2.37;;;25.80;99.90;;;;;;1051656;28;20039;-75
2022/08/25 01:23:15;;;;;;;2.35;2.15;;;25.80;99.90;;;;;;1051044;28;20103;-75
2022/08/25 01:23:48;;;;;;;3.67;2.63;;;25.80;99.90;;;;;;1047167;28;20065;-75
2022/08/25 01:24:24;;;;;;;2.85;2.17;;;25.80;99.90;;;;;;1046981;28;20063;-75
2022/08/25 01:25:00;;;;;;;3.72;2.33;;;25.80;99.90;;;;;;1047128;28;20040;-75
2022/08/25 01:26:02;;;;;;;2.63;2.20;;;25.70;99.90;;;;;;1051220;28;20031;-76
2022/08/25 01:26:35;;;;;;;2.53;2.33;;;25.70;99.90;;;;;;1055312;28;20092;-75
2022/08/25 01:27:07;;;;;;;2.30;2.10;;;25.70;99.90;;;;;;1054453;28;20019;-75
2022/08/25 01:27:37;;;;;;;2.58;2.38;;;25.70;99.90;;;;;;1046968;28;20032;-75
2022/08/25 01:28:08;;;;;;;3.63;2.10;;;25.70;99.90;;;;;;1051503;28;20126;-75
2022/08/25 01:29:19;;;;;;;2.40;2.20;;;25.70;99.90;;;;;;1051322;28;20023;-74
2022/08/25 01:29:31;;;;;;;2.40;2.20;;;25.70;99.90;;;;;;1055504;28;20119;-75
2022/08/25 01:30:02;;;;;;;2.43;2.23;;;25.70;99.90;;;;;;1052403;28;20031;-74
2022/08/25 01:30:33;;;;;;;2.67;2.47;;;25.70;99.90;;;;;;1058648;27;20123;-74
2022/08/25 01:31:04;;;;;;;2.17;2.05;;;25.70;99.90;;;;;;1059711;27;20019;-75
2022/08/25 01:31:36;;;;;;;3.73;2.23;;;25.70;99.90;;;;;;1059700;27;20027;-74
2022/08/25 01:32:12;;;;;;;2.45;2.20;;;25.70;99.90;;;;;;1054719;28;20039;-75
2022/08/25 01:32:42;;;;;;;2.60;2.40;;;25.70;99.90;;;;;;1047691;28;20680;-75
2022/08/25 01:33:13;;;;;;;2.50;2.30;;;25.70;99.90;;;;;;1047022;28;20711;-74
2022/08/25 01:33:43;;;;;;;2.53;2.23;;;25.70;99.90;;;;;;1043066;28;20024;-75
2022/08/25 01:34:15;;;;;;;2.20;2.00;;;25.70;99.90;;;;;;1050496;28;20030;-75
2022/08/25 01:34:46;;;;;;;2.78;2.30;;;25.70;99.90;;;;;;1047493;28;20013;-76
2022/08/25 01:35:17;;;;;;;2.40;2.20;;;25.70;99.90;;;;;;1047548;28;20020;-76
2022/08/25 01:35:47;;;;;;;1.80;1.70;;;25.70;99.90;;;;;;1050794;28;20016;-75
2022/08/25 01:36:21;;;;;;;2.40;2.20;;;25.70;99.90;;;;;;1047146;28;20051;-75
2022/08/25 01:36:52;;;;;;;2.60;2.38;;;25.70;99.90;;;;;;1047697;28;20150;-75
2022/08/25 01:37:23;;;;;;;2.33;2.13;;;25.70;99.90;;;;;;1047249;28;20028;-75
2022/08/25 01:37:53;;;;;;;2.47;2.17;;;25.70;99.90;;;;;;1047458;28;20457;-75
2022/08/25 01:38:25;;;;;;;3.83;2.50;;;25.70;99.90;;;;;;1051275;28;20042;-75
2022/08/25 01:38:56;;;;;;;2.50;2.30;;;25.70;99.90;;;;;;1051486;28;20020;-75
2022/08/25 01:39:28;;;;;;;2.42;2.20;;;25.70;99.90;;;;;;1055818;28;20024;-75
2022/08/25 01:39:59;;;;;;;2.00;1.90;;;25.70;99.90;;;;;;1056072;28;20024;-75
2022/08/25 01:40:31;;;;;;;2.20;2.00;;;25.70;99.90;;;;;;1056044;28;20027;-75
2022/08/25 01:41:01;;;;;;;3.03;2.25;;;25.70;99.90;;;;;;1055691;28;20565;-75
2022/08/25 01:42:03;;;;;;;3.13;2.40;;;25.70;99.90;;;;;;1055877;28;20564;-74
2022/08/25 01:43:06;;;;;;;3.47;2.67;;;25.70;99.90;;;;;;1056225;28;20043;-75
2022/08/25 01:43:38;;;;;;;2.95;2.40;;;25.70;99.90;;;;;;1051305;28;20020;-76
2022/08/25 01:44:08;;;;;;;2.67;2.45;;;25.70;99.90;;;;;;1045312;28;20119;-74
2022/08/25 01:44:42;;;;;;;2.43;2.23;;;25.70;99.90;;;;;;1047181;28;20028;-75
2022/08/25 01:45:13;;;;;;;2.72;2.38;;;25.70;99.90;;;;;;1048246;28;20024;-75
2022/08/25 01:45:46;;;;;;;2.37;2.17;;;25.70;99.90;;;;;;1049705;28;20024;-75
2022/08/25 01:46:16;;;;;;;3.13;2.83;;;25.60;99.90;;;;;;1047047;28;20032;-75
2022/08/25 01:46:47;;;;;;;2.40;2.20;;;25.70;99.90;;;;;;1042964;28;20051;-74
2022/08/25 01:47:18;;;;;;;2.90;1.70;;;25.70;99.90;;;;;;1043229;28;20029;-74
2022/08/25 01:47:49;;;;;;;2.90;1.90;;;25.70;99.90;;;;;;1047505;28;20024;-75
2022/08/25 01:48:19;;;;;;;3.13;2.67;;;25.70;99.90;;;;;;1051237;28;20501;-75
2022/08/25 01:48:50;;;;;;;2.80;2.50;;;25.70;99.90;;;;;;1055890;28;20329;-75
2022/08/25 01:49:20;;;;;;;3.37;2.10;;;25.70;99.90;;;;;;1055662;28;20509;-74
2022/08/25 01:49:51;;;;;;;3.10;2.37;;;25.70;99.90;;;;;;1059701;27;20975;-74
2022/08/25 01:50:22;;;;;;;2.97;2.40;;;25.70;99.90;;;;;;1059994;27;20045;-75
2022/08/25 01:50:52;;;;;;;2.87;2.50;;;25.70;99.90;;;;;;1055166;28;20042;-75
2022/08/25 01:51:26;;;;;;;2.80;2.60;;;25.70;99.90;;;;;;1051110;28;20605;-74
2022/08/25 01:52:39;;;;;;;2.30;1.88;;;25.70;99.90;;;;;;1046976;28;20044;-75
2022/08/25 01:53:17;;;;;;;2.92;2.13;;;25.70;99.90;;;;;;1040701;28;20155;-75
2022/08/25 01:53:47;;;;;;;;;;;25.70;99.90;;;;;;1043173;28;20099;-75
2022/08/25 01:54:18;;;;;;;2.30;2.10;;;25.70;99.90;;;;;;1042823;28;19999;-75
2022/08/25 01:54:49;;;;;;;2.80;2.50;;;25.60;99.90;;;;;;1042697;28;20087;-76
2022/08/25 01:55:20;;;;;;;2.23;2.03;;;25.60;99.90;;;;;;1042980;28;20066;-75
2022/08/25 01:55:50;;;;;;;2.40;2.17;;;25.60;99.90;;;;;;1042681;28;20052;-75
2022/08/25 01:56:21;;;;;;;2.40;2.20;;;25.60;99.90;;;;;;1042647;28;20024;-76
2022/08/25 01:56:51;;;;;;;2.20;2.00;;;25.60;99.90;;;;;;1042757;28;20024;-75
2022/08/25 01:57:22;;;;;;;2.30;2.10;;;25.60;99.90;;;;;;1038550;28;20021;-75
2022/08/25 01:57:53;;;;;;;2.23;2.03;;;25.60;99.90;;;;;;1034424;28;20033;-75
2022/08/25 01:58:28;;;;;;;5.37;2.37;;;25.60;99.90;;;;;;1030738;28;20377;-75
2022/08/25 01:58:59;;;;;;;2.67;2.15;;;25.60;99.90;;;;;;1033938;28;20022;-75
2022/08/25 01:59:30;;;;;;;2.25;2.05;;;25.60;99.90;;;;;;1041253;28;20005;-75
2022/08/25 02:00:03;;;;;;;2.30;2.00;;;25.60;99.90;;;;;;1046942;28;20099;-75
2022/08/25 02:00:34;;;;;;;2.72;2.47;;;25.60;99.90;;;;;;1048000;28;20097;-75
2022/08/25 02:01:07;;;;;;;1.97;1.87;;;25.60;99.90;;;;;;1047510;28;20017;-75
2022/08/25 02:01:38;;;;;;;2.38;2.17;;;25.60;99.90;;;;;;1051310;28;20012;-75
2022/08/25 02:02:09;;;;;;;2.37;2.17;;;25.60;99.90;;;;;;1051337;28;20008;-76
2022/08/25 02:02:41;;;;;;;2.23;2.03;;;25.60;99.90;;;;;;1051447;28;20146;-76
2022/08/25 02:03:11;;;;;;;2.40;2.20;;;25.60;99.90;;;;;;1055741;28;20011;-75
2022/08/25 02:03:44;;;;;;;2.20;2.00;;;25.60;99.90;;;;;;1051428;28;20104;-74
2022/08/25 02:04:15;;;;;;;2.92;2.03;;;25.60;99.90;;;;;;1050758;28;20016;-76
2022/08/25 02:04:47;;;;;;;3.20;2.47;;;25.60;99.90;;;;;;1051317;28;20008;-74
2022/08/25 02:05:18;;;;;;;2.25;2.05;;;25.60;99.90;;;;;;1051005;28;20008;-74
2022/08/25 02:05:49;;;;;;;2.78;1.98;;;25.60;99.90;;;;;;1047785;28;20119;-75
2022/08/25 02:06:31;;;;;;;2.58;1.85;;;25.60;99.90;;;;;;1051305;28;20019;-76
2022/08/25 02:07:04;;;;;;;2.25;2.05;;;25.60;99.90;;;;;;1051212;28;20202;-76
2022/08/25 02:07:35;;;;;;;2.28;2.08;;;25.60;99.90;;;;;;1051147;28;20012;-76
2022/08/25 02:08:06;;;;;;;3.03;2.50;;;25.60;99.90;;;;;;1047110;28;20031;-76
2022/08/25 02:08:37;;;;;;;2.00;1.90;;;25.60;99.90;;;;;;1047082;28;20039;-76
2022/08/25 02:09:10;;;;;;;2.50;2.30;;;25.60;99.90;;;;;;1042937;28;20021;-74
2022/08/25 02:09:41;;;;;;;2.40;2.20;;;25.60;99.90;;;;;;1044085;28;20025;-74
2022/08/25 02:10:12;;;;;;;2.50;2.00;;;25.60;99.90;;;;;;1047542;28;20051;-73
2022/08/25 02:10:43;;;;;;;2.15;1.98;;;25.60;99.90;;;;;;1051446;28;20603;-75
2022/08/25 02:11:14;;;;;;;2.47;2.27;;;25.60;99.90;;;;;;1051000;28;20682;-75
2022/08/25 02:11:45;;;;;;;2.50;1.80;;;25.60;99.90;;;;;;1051145;28;20012;-74
2022/08/25 02:12:16;;;;;;;2.65;2.45;;;25.60;99.90;;;;;;1051264;28;20008;-75
2022/08/25 02:12:46;;;;;;;2.87;2.60;;;25.60;99.90;;;;;;1047321;28;20020;-75
2022/08/25 02:13:19;;;;;;;4.03;2.10;;;25.60;99.90;;;;;;1051316;28;20023;-75
2022/08/25 02:13:51;;;;;;;3.83;2.40;;;25.60;99.90;;;;;;1051199;28;20134;-74
2022/08/25 02:14:23;;;;;;;4.00;2.88;;;25.60;99.90;;;;;;1047013;28;20013;-74
2022/08/25 02:14:53;;;;;;;2.80;2.10;;;25.60;99.90;;;;;;1046653;28;20127;-75
2022/08/25 02:15:24;;;;;;;2.30;2.10;;;25.60;99.90;;;;;;1047831;28;20091;-75
2022/08/25 02:15:58;;;;;;;2.17;1.98;;;25.50;99.90;;;;;;1051239;28;20441;-75
2022/08/25 02:16:32;;;;;;;2.67;2.47;;;25.50;99.90;;;;;;1051804;28;20040;-75
2022/08/25 02:17:04;;;;;;;2.53;2.33;;;25.50;99.90;;;;;;1046634;28;20024;-75
2022/08/25 02:17:35;;;;;;;2.63;2.38;;;25.50;99.90;;;;;;1047056;28;20016;-75
2022/08/25 02:18:06;;;;;;;2.75;2.05;;;25.50;99.90;;;;;;1047826;28;20447;-75
2022/08/25 02:18:36;;;;;;;2.37;2.17;;;25.50;99.90;;;;;;1051846;28;20436;-75
2022/08/25 02:19:10;;;;;;;3.67;2.30;;;25.50;99.90;;;;;;1055561;28;20039;-75
2022/08/25 02:19:41;;;;;;;2.45;2.15;;;25.50;99.90;;;;;;1051288;28;20077;-75
2022/08/25 02:20:12;;;;;;;3.17;2.20;;;25.50;99.90;;;;;;1046604;28;20059;-75
2022/08/25 02:20:43;;;;;;;2.70;2.50;;;25.50;99.90;;;;;;1047323;28;20048;-75
2022/08/25 02:21:14;;;;;;;2.38;2.17;;;25.50;99.90;;;;;;1047165;28;20016;-75
2022/08/25 02:21:44;;;;;;;2.55;2.35;;;25.50;99.90;;;;;;1049887;28;20008;-75
2022/08/25 02:22:16;;;;;;;3.33;2.43;;;25.50;99.90;;;;;;1051063;28;20040;-75
2022/08/25 02:22:46;;;;;;;2.25;2.10;;;25.50;99.90;;;;;;1051300;28;20016;-75
2022/08/25 02:23:17;;;;;;;3.97;1.87;;;25.50;99.90;;;;;;1049230;28;20051;-75
2022/08/25 02:23:48;;;;;;;2.50;2.10;;;25.50;99.90;;;;;;1051575;28;20024;-74
2022/08/25 02:24:19;;;;;;;2.80;2.50;;;25.50;99.90;;;;;;1046821;28;20262;-75
2022/08/25 02:24:50;;;;;;;2.83;2.60;;;25.50;99.90;;;;;;1051140;28;20024;-74
2022/08/25 02:25:20;;;;;;;2.40;2.20;;;25.50;99.90;;;;;;1050948;28;20012;-75
2022/08/25 02:25:51;;;;;;;2.93;2.40;;;25.50;99.90;;;;;;1055850;27;20959;-75
2022/08/25 02:26:22;;;;;;;2.50;2.30;;;25.50;99.90;;;;;;1059875;27;20556;-75
2022/08/25 02:26:53;;;;;;;3.40;2.40;;;25.50;99.90;;;;;;1052090;28;20107;-74
2022/08/25 02:27:23;;;;;;;3.17;2.33;;;25.50;99.90;;;;;;1051012;28;20084;-75
2022/08/25 02:27:54;;;;;;;3.07;2.40;;;25.50;99.90;;;;;;1051091;28;20024;-74
2022/08/25 02:28:24;;;;;;;4.00;2.30;;;25.50;99.90;;;;;;1052722;28;20016;-74
2022/08/25 02:28:55;;;;;;;3.00;2.30;;;25.50;99.90;;;;;;1051403;28;20706;-75
2022/08/25 02:29:26;;;;;;;2.60;2.40;;;25.50;99.90;;;;;;1050907;28;20019;-75
2022/08/25 02:29:57;;;;;;;2.27;2.00;;;25.50;99.90;;;;;;1051162;28;20612;-75
2022/08/25 02:30:27;;;;;;;2.63;2.43;;;25.50;99.90;;;;;;1051207;28;20412;-76
2022/08/25 02:30:58;;;;;;;2.43;2.00;;;25.50;99.90;;;;;;1055432;28;20042;-76
2022/08/25 02:31:29;;;;;;;2.38;2.15;;;25.50;99.90;;;;;;1055391;28;20031;-76
2022/08/25 02:31:59;;;;;;;2.63;2.00;;;25.50;99.90;;;;;;1051076;28;20471;-76
2022/08/25 02:32:30;;;;;;;4.17;2.23;;;25.50;99.90;;;;;;1051142;28;20012;-74
2022/08/25 02:33:01;;;;;;;3.13;2.47;;;25.50;99.90;;;;;;1051045;28;20016;-74
2022/08/25 02:33:31;;;;;;;2.23;2.03;;;25.50;99.90;;;;;;1051336;28;20016;-74
2022/08/25 02:34:03;;;;;;;2.57;2.37;;;25.50;99.90;;;;;;1051032;28;20575;-75
2022/08/25 02:34:34;;;;;;;2.35;2.15;;;25.50;99.90;;;;;;1051284;28;20016;-74
2022/08/25 02:35:06;;;;;;;2.45;2.00;;;25.50;99.90;;;;;;1051042;28;20050;-75
2022/08/25 02:35:37;;;;;;;1.90;1.80;;;25.50;99.90;;;;;;1051184;28;20016;-75
2022/08/25 02:36:09;;;;;;;2.08;1.98;;;25.50;99.90;;;;;;1051165;28;20107;-75
2022/08/25 02:36:40;;;;;;;3.00;2.22;;;25.50;99.90;;;;;;1051989;28;20128;-75
2022/08/25 02:37:11;;;;;;;2.40;2.20;;;25.50;99.90;;;;;;1055458;28;20126;-74
2022/08/25 02:37:42;;;;;;;2.85;2.55;;;25.50;99.90;;;;;;1055606;28;20022;-74
2022/08/25 02:38:13;;;;;;;3.57;2.03;;;25.50;99.90;;;;;;1055418;28;20026;-74
2022/08/25 02:38:44;;;;;;;3.92;2.50;;;25.50;99.90;;;;;;1055819;28;20046;-75
2022/08/25 02:39:15;;;;;;;3.00;1.95;;;25.50;99.90;;;;;;1050809;28;20087;-75
2022/08/25 02:39:45;;;;;;;2.17;1.97;;;25.50;99.90;;;;;;1046817;28;20028;-75
2022/08/25 02:40:16;;;;;;;2.27;2.07;;;25.50;99.90;;;;;;1046863;28;20044;-75
2022/08/25 02:40:47;;;;;;;2.00;1.80;;;25.50;99.90;;;;;;1047090;28;20025;-74
2022/08/25 02:41:20;;;;;;;2.13;1.63;;;25.50;99.90;;;;;;1051024;28;20046;-75
2022/08/25 02:41:51;;;;;;;2.20;2.00;;;25.50;99.90;;;;;;1046590;28;20044;-75
2022/08/25 02:42:23;;;;;;;3.87;2.33;;;25.50;99.90;;;;;;1047317;28;20420;-74
2022/08/25 02:42:54;;;;;;;2.85;2.55;;;25.50;99.90;;;;;;1051224;28;20019;-76
2022/08/25 02:43:26;;;;;;;2.47;2.00;;;25.50;99.90;;;;;;1047040;28;20454;-76
2022/08/25 02:43:57;;;;;;;2.58;2.38;;;25.50;99.90;;;;;;1046960;28;20044;-76
2022/08/25 02:44:28;;;;;;;3.00;2.10;;;25.50;99.90;;;;;;1046965;28;20025;-76
2022/08/25 02:44:58;;;;;;;2.60;2.13;;;25.50;99.90;;;;;;1047097;28;20119;-76
2022/08/25 02:45:29;;;;;;;4.17;2.00;;;25.50;99.90;;;;;;1049651;28;20894;-75
2022/08/25 02:45:59;;;;;;;2.37;2.17;;;25.50;99.90;;;;;;1042629;28;20025;-75
2022/08/25 02:46:31;;;;;;;2.20;2.00;;;25.50;99.90;;;;;;1042802;28;20512;-74
2022/08/25 02:47:01;;;;;;;2.20;2.00;;;25.50;99.90;;;;;;1047220;28;20027;-74
2022/08/25 02:47:33;;;;;;;2.20;2.00;;;25.50;99.90;;;;;;1043811;28;20013;-75
2022/08/25 02:48:04;;;;;;;2.53;2.05;;;25.50;99.90;;;;;;1046962;28;20251;-75
2022/08/25 02:48:34;;;;;;;2.70;2.13;;;25.50;99.90;;;;;;1046667;28;20025;-75
2022/08/25 02:49:06;;;;;;;3.30;2.67;;;25.50;99.90;;;;;;1046993;28;20024;-75